Flight Track Log - Related Links

Times and Time Zones

All times are in EDT time to prevent confusion due to time zone crossing. See the N678H flight status page for this flight to view local times or setup timezone preferences in your user account.

Time Position Orientation Groundspeed Altitude Reporting Facility
EDT Latitude Longitude Course Direction KTS MPH feet Rate Location/Type
Tue 05:49:58 PM 35.7303 -91.4797 292° West 185 213 4,600  Level Memphis Center
Tue 05:50:58 PM 35.7403 -91.5208 287° West 156 180 5,200 650 Climbing Memphis Center
Tue 05:51:58 PM 35.7483 -91.5617 284° West 137 158 5,900 650 Climbing Memphis Center
Tue 05:52:58 PM 35.7542 -91.6003 281° West 125 144 6,500 600 Climbing Memphis Center
Tue 05:53:00 PM 35.6686 -91.3892 292° West  Level FlightAware Approximate
Tue 05:53:58 PM 35.7600 -91.6361 281° West 125 144 7,100  Level Memphis Center
Tue 05:54:58 PM 35.7681 -91.6772 284° West 125 144 7,700 450 Climbing Memphis Center
Tue 05:55:58 PM 35.7758 -91.7183 283° West 125 144 8,000 200 Climbing Memphis Center
Tue 05:56:58 PM 35.7817 -91.7619 279° West 125 144 8,100 50 Climbing Memphis Center
Tue 05:57:58 PM 35.7894 -91.8056 282° West 125 144 8,100  Level Memphis Center
Tue 05:58:58 PM 35.7953 -91.8542 278° West 125 144 8,100  Level Memphis Center
Tue 05:59:58 PM 35.8031 -91.9031 281° West 136 157 8,100 -50 Level Memphis Center
Tue 06:00:58 PM 35.8128 -91.9492 285° West 142 163 8,000  Descending Memphis Center
Tue 06:01:58 PM 35.8225 -91.9956 285° West 147 169 8,100  Climbing Memphis Center
Tue 06:02:58 PM 35.8303 -92.0444 281° West 141 162 8,000  Descending Memphis Center
Tue 06:03:58 PM 35.8442 -92.0908 290° West 146 168 8,100  Climbing Memphis Center
Tue 06:04:58 PM 35.8500 -92.1369 279° West 146 168 8,000  Descending Memphis Center
Tue 06:05:58 PM 35.8575 -92.1858 281° West 146 168 8,100  Climbing Memphis Center
Tue 06:06:58 PM 35.8653 -92.2319 282° West 146 168 8,000  Descending Memphis Center
Tue 06:07:58 PM 35.8728 -92.2783 281° West 146 168 8,100  Climbing Memphis Center
Tue 06:08:58 PM 35.8803 -92.3297 280° West 146 168 8,000  Descending Memphis Center
Tue 06:09:58 PM 35.8858 -92.3733 279° West 146 168 8,100  Climbing Memphis Center
Tue 06:10:58 PM 35.8933 -92.4222 281° West 146 168 8,000  Descending Memphis Center
Tue 06:11:58 PM 35.9011 -92.4686 282° West 146 168 8,100 50 Climbing Memphis Center
Tue 06:12:58 PM 35.9086 -92.5175 281° West 146 168 8,100 -50 Level Memphis Center
Tue 06:13:58 PM 35.9161 -92.5664 281° West 146 168 8,000  Descending Memphis Center
Tue 06:14:58 PM 35.9278 -92.6153 286° West 146 168 8,100 100 Climbing Memphis Center
Tue 06:15:58 PM 35.9372 -92.6644 283° West 146 168 8,200  Climbing Memphis Center
Tue 06:16:58 PM 35.9467 -92.7183 282° West 146 168 8,100  Descending Memphis Center
Tue 06:17:58 PM 35.9539 -92.7675 280° West 151 174 8,200  Climbing Memphis Center
Tue 06:18:58 PM 35.9614 -92.8189 280° West 151 174 8,100  Descending Memphis Center
Tue 06:19:58 PM 35.9667 -92.8678 278° West 151 174 8,200 50 Climbing Memphis Center
Tue 06:20:58 PM 35.9761 -92.9167 283° West 151 174 8,200  Level Memphis Center
Tue 06:21:58 PM 35.9875 -92.9658 286° West 151 174 8,200  Level Memphis Center
Tue 06:22:58 PM 35.9989 -93.0150 286° West 151 174 8,200 -50 Level Memphis Center
Tue 06:23:58 PM 36.0064 -93.0614 281° West 146 168 8,100 -50 Descending Memphis Center
Tue 06:24:58 PM 36.0136 -93.1053 282° West 146 168 8,100 50 Level Memphis Center
Tue 06:25:58 PM 36.0231 -93.1544 283° West 146 168 8,200 50 Climbing Memphis Center
Tue 06:26:58 PM 36.0303 -93.2058 280° West 146 168 8,200 -50 Level Memphis Center
Tue 06:27:58 PM 36.0375 -93.2575 280° West 146 168 8,100 -50 Descending Memphis Center
Tue 06:28:58 PM 36.0467 -93.3067 283° West 146 168 8,100  Level Memphis Center
Tue 06:29:58 PM 36.0436 -93.3528 265° West 146 168 8,100 -50 Level Memphis Center
Tue 06:30:58 PM 36.0383 -93.3986 262° West 141 162 8,000 -350 Descending Memphis Center
Tue 06:31:58 PM 36.0328 -93.4472 262° West 141 162 7,400 -700 Descending Memphis Center
Tue 06:32:58 PM 36.0294 -93.5036 266° West 152 175 6,600 -900 Descending Memphis Center
Tue 06:33:58 PM 36.0278 -93.5600 268° West 162 186 5,600 -900 Descending Memphis Center
Tue 06:34:58 PM 36.0158 -93.6186 256° West 167 192 4,800 -750 Descending Memphis Center
Tue 06:35:58 PM 36.0100 -93.6825 264° West 172 198 4,100 -400 Descending Memphis Center
Tue 06:36:58 PM 36.0044 -93.7389 263° West 177 204 4,000 -100 Descending Memphis Center
Tue 06:43:00 PM 36.0272 -93.7889 256° West  Level Estimated
Tue 06:50:00 PM 36.1667 -94.1167 324° Northwest  Level FlightAware Approximate
Tue 06:51:00 PM 36.1764 -94.1192 324° Northwest  Level Estimated
Tue 06:52:00 PM 36.1764 -94.1192 324° Northwest  Level Estimated
Tue 06:53:00 PM 36.1764 -94.1192 324° Northwest  Level Estimated
Tue 06:54:00 PM 36.1764 -94.1192 324° Northwest  Level Estimated
Tue 06:55:00 PM 36.1764 -94.1192 324° Northwest  Level Estimated

Login

Don't have an account? Register now (free) for customized features, flight alerts, and more!